createdAt,value
2019-05-26T00:04:34.113Z,100377.38
2019-05-26T00:09:39.020Z,100372.16
2019-05-26T00:14:44.178Z,100363.13
2019-05-26T00:19:49.170Z,100357.36
2019-05-26T00:24:53.990Z,100352.72
2019-05-26T00:29:58.998Z,100347.31
2019-05-26T00:35:03.856Z,100357.76
2019-05-26T00:40:10.438Z,100344.96
2019-05-26T00:45:15.535Z,100351.83
2019-05-26T00:50:20.390Z,100346.02
2019-05-26T00:55:25.191Z,100339.31
2019-05-26T01:00:40.499Z,100339.83
2019-05-26T01:05:45.504Z,100338.41
2019-05-26T01:10:50.299Z,100336.81
2019-05-26T01:15:55.209Z,100335.63
2019-05-26T01:21:00.151Z,100339.16
2019-05-26T01:26:05.205Z,100337.43
2019-05-26T01:31:09.951Z,100338.76
2019-05-26T01:36:14.839Z,100339.66
2019-05-26T01:41:19.750Z,100336.19
2019-05-26T01:46:24.771Z,100332.00
2019-05-26T01:51:29.678Z,100324.30
2019-05-26T01:56:34.503Z,100318.87
2019-05-26T02:01:39.369Z,100300.89
2019-05-26T02:06:44.180Z,100302.47
2019-05-26T02:11:48.951Z,100289.30
2019-05-26T02:16:53.866Z,100279.36
2019-05-26T02:21:58.731Z,100282.75
2019-05-26T02:27:03.579Z,100284.13
2019-05-26T02:32:08.501Z,100284.13
2019-05-26T02:37:13.155Z,100279.32
2019-05-26T02:42:17.888Z,100276.78
2019-05-26T02:47:22.778Z,100290.09
2019-05-26T02:52:27.452Z,100288.81
2019-05-26T02:57:32.340Z,100284.02
2019-05-26T03:02:37.251Z,100271.56
2019-05-26T03:07:44.526Z,100265.88
2019-05-26T03:12:51.394Z,100266.33
2019-05-26T03:17:57.672Z,100263.82
2019-05-26T03:23:03.791Z,100259.17
2019-05-26T03:28:08.691Z,100260.23
2019-05-26T03:33:13.447Z,100252.79
2019-05-26T03:38:18.360Z,100248.86
2019-05-26T03:43:23.411Z,100248.52
2019-05-26T03:48:28.191Z,100254.50
2019-05-26T03:53:33.060Z,100252.25
2019-05-26T03:58:37.938Z,100258.03
2019-05-26T04:03:42.923Z,100258.03
2019-05-26T04:08:47.959Z,100260.63
2019-05-26T04:13:55.779Z,100251.59
2019-05-26T04:19:00.471Z,100247.19
2019-05-26T04:24:05.740Z,100239.83
2019-05-26T04:29:10.544Z,100224.67
2019-05-26T04:34:15.273Z,100222.42
2019-05-26T04:39:20.940Z,100220.67
2019-05-26T04:44:25.800Z,100201.72
2019-05-26T04:49:30.611Z,100211.76
2019-05-26T04:54:35.500Z,100205.73
2019-05-26T04:59:40.291Z,100193.46
2019-05-26T05:04:44.971Z,100200.92
2019-05-26T05:09:49.918Z,100199.44
2019-05-26T05:14:55.172Z,100208.96
2019-05-26T05:19:59.851Z,100204.39
2019-05-26T05:25:13.033Z,100207.95
2019-05-26T05:30:12.291Z,100210.24
2019-05-26T05:35:17.419Z,100204.89
2019-05-26T05:40:22.533Z,100207.11
2019-05-26T05:45:27.268Z,100203.61
2019-05-26T05:50:32.203Z,100199.08
2019-05-26T05:55:36.930Z,100176.75
2019-05-26T06:00:41.698Z,100188.08
2019-05-26T06:05:46.410Z,100185.73
2019-05-26T06:10:51.412Z,100188.50
2019-05-26T06:15:56.220Z,100184.94
2019-05-26T06:21:00.910Z,100191.97
2019-05-26T06:26:06.219Z,100186.30
2019-05-26T06:31:10.971Z,100192.92
2019-05-26T06:36:15.859Z,100186.19
2019-05-26T06:41:32.906Z,100171.45
2019-05-26T06:46:27.922Z,100171.02
2019-05-26T06:51:32.966Z,100182.66
2019-05-26T06:56:37.759Z,100181.52
2019-05-26T07:01:42.786Z,100180.18
2019-05-26T07:06:47.791Z,100176.22
2019-05-26T07:11:59.590Z,100178.38
2019-05-26T07:16:59.377Z,100180.98
2019-05-26T07:22:04.451Z,100175.34
2019-05-26T07:27:09.387Z,100179.91
2019-05-26T07:32:14.570Z,100174.39
2019-05-26T07:37:19.478Z,100171.57
2019-05-26T07:42:24.439Z,100189.02
2019-05-26T07:47:29.330Z,100188.07
2019-05-26T07:52:34.142Z,100187.09
2019-05-26T07:57:39.161Z,100172.63
2019-05-26T08:02:44.073Z,100173.12
2019-05-26T08:07:49.171Z,100166.11
2019-05-26T08:12:53.947Z,100163.19
2019-05-26T08:17:58.681Z,100158.06
2019-05-26T08:23:03.530Z,100149.83
2019-05-26T08:28:08.372Z,100151.95
2019-05-26T08:33:13.091Z,100143.44
2019-05-26T08:38:18.046Z,100144.94
2019-05-26T08:43:22.879Z,100146.68
2019-05-26T08:48:27.779Z,100134.50
2019-05-26T08:53:32.661Z,100143.31
2019-05-26T08:58:37.462Z,100135.38
2019-05-26T09:03:42.422Z,100153.08
2019-05-26T09:08:47.640Z,100149.52
2019-05-26T09:13:52.479Z,100129.63
2019-05-26T09:18:57.579Z,100132.76
2019-05-26T09:24:02.578Z,100135.06
2019-05-26T09:29:07.368Z,100139.23
2019-05-26T09:34:12.419Z,100133.76
2019-05-26T09:39:17.187Z,100127.22
2019-05-26T09:44:22.270Z,100127.29
2019-05-26T09:49:27.010Z,100119.43
2019-05-26T09:54:31.992Z,100121.39
2019-05-26T09:59:36.858Z,100126.77
2019-05-26T10:04:41.851Z,100121.25
2019-05-26T10:09:46.840Z,100123.60
2019-05-26T10:14:51.740Z,100113.02
2019-05-26T10:19:56.798Z,100123.95
2019-05-26T10:25:01.513Z,100120.17
2019-05-26T10:30:07.958Z,100117.59
2019-05-26T10:35:13.432Z,100111.22
2019-05-26T10:40:18.820Z,100109.48
2019-05-26T10:45:23.940Z,100099.73
2019-05-26T10:50:28.931Z,100099.48
2019-05-26T10:55:33.662Z,100107.28
2019-05-26T11:00:38.434Z,100101.36
2019-05-26T11:05:43.187Z,100096.73
2019-05-26T11:10:48.264Z,100095.34
2019-05-26T11:15:52.973Z,100087.86
2019-05-26T11:20:57.705Z,100080.71
2019-05-26T11:26:02.278Z,100083.71
2019-05-26T11:31:06.985Z,100082.13
2019-05-26T11:36:11.613Z,100079.25
2019-05-26T11:41:16.413Z,100072.72
2019-05-26T11:46:21.918Z,100071.03
2019-05-26T11:51:26.603Z,100057.31
2019-05-26T11:56:31.634Z,100064.42
2019-05-26T12:01:36.397Z,100058.47
2019-05-26T12:06:41.178Z,100062.50
2019-05-26T12:11:45.946Z,100061.82
2019-05-26T12:16:50.954Z,100067.67
2019-05-26T12:21:55.610Z,100057.31
2019-05-26T12:27:00.288Z,100065.61
2019-05-26T12:32:05.113Z,100066.02
2019-05-26T12:37:09.747Z,100067.89
2019-05-26T12:42:16.988Z,100064.27
2019-05-26T12:47:21.552Z,100060.69
2019-05-26T12:52:26.867Z,100023.01
2019-05-26T12:57:31.644Z,100045.05
2019-05-26T13:02:36.459Z,100045.77
2019-05-26T13:07:41.848Z,100045.53
2019-05-26T13:12:46.783Z,100039.06
2019-05-26T13:17:51.561Z,100036.58
2019-05-26T13:22:56.460Z,100039.12
2019-05-26T13:28:01.184Z,100035.12
2019-05-26T13:33:06.141Z,100040.61
2019-05-26T13:38:10.860Z,100034.09
2019-05-26T13:43:16.141Z,100038.94
2019-05-26T13:48:21.242Z,100040.86
2019-05-26T13:53:25.945Z,100034.22
2019-05-26T13:58:30.768Z,100040.80
2019-05-26T14:03:35.589Z,100033.89
2019-05-26T14:08:40.560Z,100031.78
2019-05-26T14:13:45.869Z,100034.77
2019-05-26T14:18:52.580Z,100036.36
2019-05-26T14:23:57.451Z,100038.14
2019-05-26T14:29:02.184Z,100030.65
2019-05-26T14:34:07.102Z,100020.64
2019-05-26T14:39:12.064Z,100023.31
2019-05-26T14:44:16.833Z,100022.94
2019-05-26T14:49:22.145Z,100024.48
2019-05-26T14:54:27.238Z,100008.14
2019-05-26T14:59:32.107Z,100006.59
2019-05-26T15:04:37.004Z,100009.94
2019-05-26T15:09:42.224Z,100002.03
2019-05-26T15:14:47.160Z,100002.16
2019-05-26T15:19:52.018Z,99993.78
2019-05-26T15:24:56.844Z,99995.23
2019-05-26T15:30:02.107Z,99987.80
2019-05-26T15:35:07.324Z,99970.41
2019-05-26T15:40:13.583Z,99985.89
2019-05-26T15:45:18.464Z,100000.03
2019-05-26T15:50:23.544Z,99993.67
2019-05-26T15:55:28.607Z,99997.09
2019-05-26T16:00:33.276Z,100000.56
2019-05-26T16:05:38.262Z,99995.50
2019-05-26T16:10:42.903Z,99995.08
2019-05-26T16:15:47.847Z,99993.81
2019-05-26T16:21:02.715Z,99994.38
2019-05-26T16:25:59.798Z,99999.88
2019-05-26T16:31:04.782Z,100007.69
2019-05-26T16:36:09.599Z,100003.36
2019-05-26T16:41:14.481Z,100011.77
2019-05-26T16:46:19.231Z,100011.62
2019-05-26T16:51:24.047Z,100015.59
2019-05-26T16:56:28.865Z,100015.23
2019-05-26T17:01:33.684Z,100014.86
2019-05-26T17:06:38.401Z,100003.64
2019-05-26T17:11:43.182Z,100010.47
2019-05-26T17:16:48.003Z,100006.80
2019-05-26T17:21:52.718Z,100013.34
2019-05-26T17:26:57.663Z,100013.23
2019-05-26T17:32:02.324Z,100015.52
2019-05-26T17:37:06.983Z,100016.91
2019-05-26T17:42:12.045Z,100018.12
2019-05-26T17:47:29.137Z,100016.71
2019-05-26T17:52:23.722Z,100016.98
2019-05-26T17:57:28.602Z,100008.78
2019-05-26T18:02:33.678Z,100010.61
2019-05-26T18:07:38.584Z,100014.54
2019-05-26T18:12:43.285Z,100009.80
2019-05-26T18:17:48.086Z,99997.03
2019-05-26T18:22:53.083Z,100004.41
2019-05-26T18:27:58.024Z,100002.14
2019-05-26T18:33:02.708Z,100004.05
2019-05-26T18:38:07.498Z,100005.36
2019-05-26T18:43:12.537Z,100007.41
2019-05-26T18:48:17.549Z,99997.10
2019-05-26T18:53:22.643Z,100007.84
2019-05-26T18:58:27.383Z,100007.59
2019-05-26T19:03:32.345Z,100009.07
2019-05-26T19:08:38.448Z,100015.96
2019-05-26T19:13:43.409Z,100016.74
2019-05-26T19:18:48.193Z,100014.19
2019-05-26T19:23:52.951Z,100010.88
2019-05-26T19:28:57.727Z,100007.72
2019-05-26T19:34:02.586Z,100016.79
2019-05-26T19:39:10.665Z,100020.30
2019-05-26T19:44:15.589Z,100020.09
2019-05-26T19:49:20.488Z,100022.62
2019-05-26T19:54:25.651Z,100023.50
2019-05-26T19:59:30.545Z,100025.95
2019-05-26T20:04:35.800Z,100023.61
2019-05-26T20:09:40.512Z,100025.05
2019-05-26T20:14:45.400Z,100034.00
2019-05-26T20:19:50.224Z,100036.95
2019-05-26T20:24:54.971Z,100039.75
2019-05-26T20:29:59.733Z,100043.65
2019-05-26T20:35:05.191Z,100048.06
2019-05-26T20:40:10.841Z,100049.85
2019-05-26T20:45:16.370Z,100054.41
2019-05-26T20:50:29.253Z,100062.84
2019-05-26T20:55:28.809Z,100058.48
2019-05-26T21:00:33.511Z,100067.91
2019-05-26T21:05:38.370Z,100066.36
2019-05-26T21:10:43.111Z,100065.22
2019-05-26T21:15:48.272Z,100057.30
2019-05-26T21:20:52.908Z,100065.42
2019-05-26T21:25:58.132Z,100065.19
2019-05-26T21:31:02.798Z,100058.09
2019-05-26T21:36:07.830Z,100062.31
2019-05-26T21:41:12.705Z,100061.13
2019-05-26T21:46:17.491Z,100061.41
2019-05-26T21:51:22.241Z,100062.66
2019-05-26T21:56:26.969Z,100057.85
2019-05-26T22:01:31.871Z,100066.98
2019-05-26T22:06:36.591Z,100066.98
2019-05-26T22:11:41.269Z,100063.96
2019-05-26T22:16:45.923Z,100062.23
2019-05-26T22:21:50.788Z,100055.00
2019-05-26T22:26:55.871Z,100054.89
2019-05-26T22:32:00.513Z,100062.23
2019-05-26T22:37:05.289Z,100059.55
2019-05-26T22:42:10.029Z,100056.00
2019-05-26T22:47:14.839Z,100052.92
2019-05-26T22:52:19.610Z,100056.19
2019-05-26T22:57:24.645Z,100049.52
2019-05-26T23:02:29.875Z,100050.41
2019-05-26T23:07:34.856Z,100050.91
2019-05-26T23:12:39.684Z,100050.48
2019-05-26T23:17:44.593Z,100045.09
2019-05-26T23:22:49.292Z,100042.07
2019-05-26T23:27:53.986Z,100042.52
2019-05-26T23:32:58.761Z,100032.20
2019-05-26T23:38:03.399Z,100035.12
2019-05-26T23:43:08.045Z,100028.13
2019-05-26T23:48:12.736Z,100032.97
2019-05-26T23:53:17.369Z,100033.84
2019-05-26T23:58:22.218Z,100027.77
